Celebrity Century — 9HJI9 — position and weather

sailwx.info

Track history (hours):
 
Tides and Currents Weather Stations Pressure Air Temp Water Temp Dewpoint Dewpoint Depression Visibility Wind Speed Wind Dir Waves Ship Positions

Celebrity Century

Last reported at 2017-Feb-23 09:33 UTC. Time now 2017-Feb-24 08:21 UTC.
Position N 31°18' E 121°46'.

Length 250 m; draft 8 m.

Type: Ship. MMSI: 249054000.

Date/timePositionNaut miles runAvg speedWind from/ knotsBaromVisibWave heightAir tempDewpointWater temp
2017-Feb-23 09:33N 31°18' E 121°46'1212.1
2017-Feb-23 08:33N 31°24' E 121°34'3 3.0
2017-Feb-23 07:32N 31°25' E 121°30'0 0.0
2017-Feb-23 06:33N 31°25' E 121°30'0 0.0
2017-Feb-23 05:34N 31°25' E 121°30'0 0.0
2017-Feb-23 04:34N 31°25' E 121°30'0 0.0
2017-Feb-23 03:33N 31°25' E 121°30'0 0.0
2017-Feb-23 02:34N 31°25' E 121°30'0 0.0
2017-Feb-23 01:34N 31°25' E 121°30'0 0.0
2017-Feb-23 00:34N 31°25' E 121°30'0 0.3
2017-Feb-22 23:33N 31°25' E 121°31'9 9.3
2017-Feb-22 22:33N 31°21' E 121°40'  
2017-Feb-18 15:33N 31°34' E 123°15'2117.5
2017-Feb-18 14:20N 31°21' E 122°56'1618.0
2017-Feb-18 13:25N 31°09' E 122°42'1413.6
2017-Feb-18 12:23N 31°06' E 122°26'1113.4
2017-Feb-18 11:33N 31°09' E 122°14'1414.0
2017-Feb-18 10:33N 31°15' E 121°59'1312.8
2017-Feb-18 09:33N 31°19' E 121°45'1110.9
2017-Feb-18 08:33N 31°24' E 121°33'3 0.4
2017-Feb-18 01:09N 31°25' E 121°30'1 0.9
2017-Feb-18 00:33N 31°25' E 121°31'1111.0
2017-Feb-17 23:33N 31°20' E 121°42'9 9.0
2017-Feb-17 22:33N 31°16' E 121°52'1010.4
2017-Feb-17 21:33N 31°14' E 122°04'1110.5
2017-Feb-17 20:33N 31°09' E 122°14'1211.8
2017-Feb-17 19:34N 31°06' E 122°28'40 9.4
2017-Feb-17 15:19N 31°16' E 123°13'  
2017-Feb-14 21:18N 32°11' E 124°13'1520.2
2017-Feb-14 20:33N 32°02' E 123°59'2020.4
2017-Feb-14 19:33N 31°49' E 123°41'2020.3
2017-Feb-14 18:33N 31°34' E 123°24'2319.3
2017-Feb-14 17:21N 31°20' E 123°03'1619.9
2017-Feb-14 16:33N 31°07' E 122°51'1616.5
2017-Feb-14 15:33N 31°06' E 122°32'1110.7
2017-Feb-14 14:33N 31°06' E 122°20'1212.3
2017-Feb-14 13:33N 31°13' E 122°08'1414.3
2017-Feb-14 12:34N 31°16' E 121°52'1313.2
2017-Feb-14 11:34N 31°22' E 121°38'7 3.4
2017-Feb-14 09:30N 31°25' E 121°30'0 0.0
2017-Feb-14 08:30N 31°25' E 121°30'0 0.0
2017-Feb-14 07:30N 31°25' E 121°30'0 0.0
2017-Feb-14 06:18N 31°25' E 121°30'0 0.0
2017-Feb-14 05:24N 31°25' E 121°30'0 0.0
2017-Feb-14 03:30N 31°25' E 121°30'0 0.0
2017-Feb-14 02:18N 31°25' E 121°30'0 0.0
2017-Feb-14 01:30N 31°25' E 121°30'0 0.0
2017-Feb-14 00:32N 31°25' E 121°30'0 0.1
2017-Feb-13 23:33N 31°25' E 121°30'7 7.5
2017-Feb-13 22:33N 31°22' E 121°38'1110.5
2017-Feb-13 21:33N 31°17' E 121°49'1211.9
2017-Feb-13 20:34N 31°14' E 122°03'1211.7
2017-Feb-13 19:33N 31°09' E 122°14'1111.3
2017-Feb-13 18:33N 31°07' E 122°28'1313.5
2017-Feb-13 17:33N 31°08' E 122°43'1515.1
2017-Feb-13 16:33N 31°19' E 122°56'  
Track history (hours):
 
Tides and Currents Weather Stations Pressure Air Temp Water Temp Dewpoint Dewpoint Depression Visibility Wind Speed Wind Dir Waves Ship Positions

Celebrity Century

Last reported at 2017-Feb-23 09:33 UTC. Time now 2017-Feb-24 08:21 UTC.
Position N 31°18' E 121°46'.

Length 250 m; draft 8 m.

Type: Ship. MMSI: 249054000.

Date/timePositionNaut miles runAvg speedWind from/ knotsBaromVisibWave heightAir tempDewpointWater temp
2017-Feb-23 09:33N 31°18' E 121°46'1212.1
2017-Feb-23 08:33N 31°24' E 121°34'3 3.0
2017-Feb-23 07:32N 31°25' E 121°30'0 0.0
2017-Feb-23 06:33N 31°25' E 121°30'0 0.0
2017-Feb-23 05:34N 31°25' E 121°30'0 0.0
2017-Feb-23 04:34N 31°25' E 121°30'0 0.0
2017-Feb-23 03:33N 31°25' E 121°30'0 0.0
2017-Feb-23 02:34N 31°25' E 121°30'0 0.0
2017-Feb-23 01:34N 31°25' E 121°30'0 0.0
2017-Feb-23 00:34N 31°25' E 121°30'0 0.3
2017-Feb-22 23:33N 31°25' E 121°31'9 9.3
2017-Feb-22 22:33N 31°21' E 121°40'  
2017-Feb-18 15:33N 31°34' E 123°15'2117.5
2017-Feb-18 14:20N 31°21' E 122°56'1618.0
2017-Feb-18 13:25N 31°09' E 122°42'1413.6
2017-Feb-18 12:23N 31°06' E 122°26'1113.4
2017-Feb-18 11:33N 31°09' E 122°14'1414.0
2017-Feb-18 10:33N 31°15' E 121°59'1312.8
2017-Feb-18 09:33N 31°19' E 121°45'1110.9
2017-Feb-18 08:33N 31°24' E 121°33'3 0.4
2017-Feb-18 01:09N 31°25' E 121°30'1 0.9
2017-Feb-18 00:33N 31°25' E 121°31'1111.0
2017-Feb-17 23:33N 31°20' E 121°42'9 9.0
2017-Feb-17 22:33N 31°16' E 121°52'1010.4
2017-Feb-17 21:33N 31°14' E 122°04'1110.5
2017-Feb-17 20:33N 31°09' E 122°14'1211.8
2017-Feb-17 19:34N 31°06' E 122°28'40 9.4
2017-Feb-17 15:19N 31°16' E 123°13'  
2017-Feb-14 21:18N 32°11' E 124°13'1520.2
2017-Feb-14 20:33N 32°02' E 123°59'2020.4
2017-Feb-14 19:33N 31°49' E 123°41'2020.3
2017-Feb-14 18:33N 31°34' E 123°24'2319.3
2017-Feb-14 17:21N 31°20' E 123°03'1619.9
2017-Feb-14 16:33N 31°07' E 122°51'1616.5
2017-Feb-14 15:33N 31°06' E 122°32'1110.7
2017-Feb-14 14:33N 31°06' E 122°20'1212.3
2017-Feb-14 13:33N 31°13' E 122°08'1414.3
2017-Feb-14 12:34N 31°16' E 121°52'1313.2
2017-Feb-14 11:34N 31°22' E 121°38'7 3.4
2017-Feb-14 09:30N 31°25' E 121°30'0 0.0
2017-Feb-14 08:30N 31°25' E 121°30'0 0.0
2017-Feb-14 07:30N 31°25' E 121°30'0 0.0
2017-Feb-14 06:18N 31°25' E 121°30'0 0.0
2017-Feb-14 05:24N 31°25' E 121°30'0 0.0
2017-Feb-14 03:30N 31°25' E 121°30'0 0.0
2017-Feb-14 02:18N 31°25' E 121°30'0 0.0
2017-Feb-14 01:30N 31°25' E 121°30'0 0.0
2017-Feb-14 00:32N 31°25' E 121°30'0 0.1
2017-Feb-13 23:33N 31°25' E 121°30'7 7.5
2017-Feb-13 22:33N 31°22' E 121°38'1110.5
2017-Feb-13 21:33N 31°17' E 121°49'1211.9
2017-Feb-13 20:34N 31°14' E 122°03'1211.7
2017-Feb-13 19:33N 31°09' E 122°14'1111.3
2017-Feb-13 18:33N 31°07' E 122°28'1313.5
2017-Feb-13 17:33N 31°08' E 122°43'1515.1
2017-Feb-13 16:33N 31°19' E 122°56'  

Dump ship's entire track history